Terminal Aerodrome Forecast
Issued by NWS Cleveland, OH

Home | Current Version | Previous Version | Graphics & Text | Print | Product List | Glossary Off
Versions: 1 2 3 4 5 6 7 8 9 10 11 12 13 14 15 16 17 18 19 20 21 22 23 24 25 26 27 28 29 30 31

000
FTUS41 KCLE 272300
TAFCLE
TAF
KCLE 272336Z 2800/2906 14008KT P6SM VCTS SCT025CB OVC040
      TEMPO 2800/2803 3SM -TSRA BR OVC025CB
     FM280300 24008KT P6SM SCT025 OVC040
     FM280900 30010KT 5SM BR OVC012
     FM281800 34018G28KT P6SM BKN035=

USA.gov is the U.S. government's official web portal to all federal, state and local government web resources and services.